sensor_id;sensor_type;location;lat;lon;timestamp;pressure;altitude;pressure_sealevel;temperature;humidity
21545;BME280;10933;50.754;11.508;2023-06-14T11:42:41;99587.34;;;24.26;100.00
21545;BME280;10933;50.754;11.508;2023-06-14T11:45:11;99593.19;;;24.57;98.22
21545;BME280;10933;50.754;11.508;2023-06-14T11:47:39;99594.56;;;23.85;100.00
21545;BME280;10933;50.754;11.508;2023-06-14T11:50:09;99598.56;;;24.08;99.85
21545;BME280;10933;50.754;11.508;2023-06-14T11:52:37;99594.81;;;22.71;100.00
21545;BME280;10933;50.754;11.508;2023-06-14T11:55:04;99580.84;;;22.46;100.00
21545;BME280;10933;50.754;11.508;2023-06-14T11:57:34;99570.91;;;23.84;100.00
21545;BME280;10933;50.754;11.508;2023-06-14T12:00:04;99594.63;;;23.97;100.00
21545;BME280;10933;50.754;11.508;2023-06-14T12:02:38;99587.69;;;23.08;100.00
21545;BME280;10933;50.754;11.508;2023-06-14T12:05:06;99590.25;;;22.37;100.00
21545;BME280;10933;50.754;11.508;2023-06-14T12:07:36;99584.19;;;21.88;100.00
21545;BME280;10933;50.754;11.508;2023-06-14T12:12:31;99588.72;;;21.66;100.00
21545;BME280;10933;50.754;11.508;2023-06-14T12:15:06;99580.13;;;23.26;100.00
21545;BME280;10933;50.754;11.508;2023-06-14T12:17:37;99594.00;;;24.58;97.25
21545;BME280;10933;50.754;11.508;2023-06-14T12:20:12;99582.34;;;25.38;90.75
21545;BME280;10933;50.754;11.508;2023-06-14T12:22:58;99578.47;;;24.53;86.43
21545;BME280;10933;50.754;11.508;2023-06-14T12:25:28;99567.63;;;23.91;97.29
21545;BME280;10933;50.754;11.508;2023-06-14T12:27:57;99565.91;;;23.44;100.00
21545;BME280;10933;50.754;11.508;2023-06-14T12:30:23;99572.09;;;22.53;100.00
21545;BME280;10933;50.754;11.508;2023-06-14T12:32:49;99573.31;;;22.26;100.00
21545;BME280;10933;50.754;11.508;2023-06-14T12:35:17;99576.34;;;22.33;100.00
21545;BME280;10933;50.754;11.508;2023-06-14T12:37:47;99578.38;;;21.81;100.00
21545;BME280;10933;50.754;11.508;2023-06-14T12:40:13;99569.97;;;21.68;100.00
21545;BME280;10933;50.754;11.508;2023-06-14T12:42:40;99562.22;;;21.88;100.00
21545;BME280;10933;50.754;11.508;2023-06-14T12:45:06;99563.75;;;23.29;100.00
21545;BME280;10933;50.754;11.508;2023-06-14T12:47:33;99559.47;;;23.94;100.00
21545;BME280;10933;50.754;11.508;2023-06-14T12:49:59;99571.50;;;22.39;100.00
21545;BME280;10933;50.754;11.508;2023-06-14T12:52:25;99557.06;;;22.50;100.00
21545;BME280;10933;50.754;11.508;2023-06-14T12:54:51;99562.16;;;22.22;100.00
21545;BME280;10933;50.754;11.508;2023-06-14T12:57:17;99555.00;;;22.39;100.00
21545;BME280;10933;50.754;11.508;2023-06-14T12:59:43;99558.09;;;22.37;100.00
21545;BME280;10933;50.754;11.508;2023-06-14T13:02:16;99562.75;;;23.13;100.00
21545;BME280;10933;50.754;11.508;2023-06-14T13:04:43;99567.44;;;23.33;100.00
21545;BME280;10933;50.754;11.508;2023-06-14T13:07:10;99573.09;;;24.24;100.00
21545;BME280;10933;50.754;11.508;2023-06-14T13:09:41;99575.94;;;24.60;100.00
21545;BME280;10933;50.754;11.508;2023-06-14T13:12:08;99570.81;;;23.39;100.00
21545;BME280;10933;50.754;11.508;2023-06-14T13:14:34;99575.63;;;23.42;100.00
21545;BME280;10933;50.754;11.508;2023-06-14T13:17:00;99574.25;;;24.23;98.65
21545;BME280;10933;50.754;11.508;2023-06-14T13:19:27;99576.19;;;23.77;98.13
21545;BME280;10933;50.754;11.508;2023-06-14T13:21:53;99577.38;;;23.46;98.25
21545;BME280;10933;50.754;11.508;2023-06-14T13:24:19;99573.00;;;24.20;96.46
21545;BME280;10933;50.754;11.508;2023-06-14T13:26:45;99571.72;;;25.52;76.47
21545;BME280;10933;50.754;11.508;2023-06-14T13:29:11;99575.63;;;26.98;74.33
21545;BME280;10933;50.754;11.508;2023-06-14T13:31:37;99568.47;;;25.62;82.51
21545;BME280;10933;50.754;11.508;2023-06-14T13:34:03;99560.47;;;24.23;98.82
21545;BME280;10933;50.754;11.508;2023-06-14T13:36:30;99559.91;;;23.84;100.00
21545;BME280;10933;50.754;11.508;2023-06-14T13:38:56;99570.13;;;23.42;100.00
21545;BME280;10933;50.754;11.508;2023-06-14T13:41:25;99573.16;;;22.99;100.00
21545;BME280;10933;50.754;11.508;2023-06-14T13:43:57;99563.03;;;22.90;100.00
21545;BME280;10933;50.754;11.508;2023-06-14T13:46:24;99571.19;;;23.08;100.00
21545;BME280;10933;50.754;11.508;2023-06-14T13:48:50;99562.06;;;24.24;100.00
21545;BME280;10933;50.754;11.508;2023-06-14T13:51:17;99558.72;;;24.06;99.97
21545;BME280;10933;50.754;11.508;2023-06-14T13:53:51;99544.47;;;24.04;100.00
21545;BME280;10933;50.754;11.508;2023-06-14T13:56:19;99562.38;;;23.65;100.00
21545;BME280;10933;50.754;11.508;2023-06-14T13:58:45;99560.91;;;23.17;100.00
21545;BME280;10933;50.754;11.508;2023-06-14T14:01:11;99561.94;;;23.54;100.00
21545;BME280;10933;50.754;11.508;2023-06-14T14:03:38;99568.56;;;23.74;100.00
21545;BME280;10933;50.754;11.508;2023-06-14T14:06:04;99565.41;;;23.84;100.00
21545;BME280;10933;50.754;11.508;2023-06-14T14:08:31;99561.22;;;24.44;100.00
21545;BME280;10933;50.754;11.508;2023-06-14T14:10:58;99565.81;;;25.26;92.91
21545;BME280;10933;50.754;11.508;2023-06-14T14:13:24;99563.75;;;25.22;95.64
21545;BME280;10933;50.754;11.508;2023-06-14T14:15:51;99556.44;;;24.65;99.63
21545;BME280;10933;50.754;11.508;2023-06-14T14:18:17;99563.03;;;23.62;100.00
21545;BME280;10933;50.754;11.508;2023-06-14T14:20:43;99560.94;;;23.80;100.00
21545;BME280;10933;50.754;11.508;2023-06-14T14:23:10;99559.53;;;23.53;100.00
21545;BME280;10933;50.754;11.508;2023-06-14T14:25:36;99554.78;;;23.11;100.00
21545;BME280;10933;50.754;11.508;2023-06-14T14:28:03;99553.88;;;23.28;100.00
21545;BME280;10933;50.754;11.508;2023-06-14T14:30:29;99560.13;;;23.16;100.00
21545;BME280;10933;50.754;11.508;2023-06-14T14:32:55;99557.19;;;22.92;100.00
21545;BME280;10933;50.754;11.508;2023-06-14T14:35:21;99553.56;;;22.32;100.00
21545;BME280;10933;50.754;11.508;2023-06-14T14:37:49;99570.94;;;22.07;100.00
21545;BME280;10933;50.754;11.508;2023-06-14T14:40:15;99565.47;;;21.72;100.00
21545;BME280;10933;50.754;11.508;2023-06-14T14:42:41;99565.47;;;21.38;100.00
21545;BME280;10933;50.754;11.508;2023-06-14T14:45:08;99570.63;;;21.83;100.00
21545;BME280;10933;50.754;11.508;2023-06-14T14:47:34;99566.72;;;22.95;100.00
21545;BME280;10933;50.754;11.508;2023-06-14T14:50:00;99571.22;;;22.99;100.00
21545;BME280;10933;50.754;11.508;2023-06-14T14:52:27;99568.78;;;22.68;100.00
21545;BME280;10933;50.754;11.508;2023-06-14T14:54:53;99569.03;;;22.84;100.00
21545;BME280;10933;50.754;11.508;2023-06-14T14:57:19;99565.25;;;22.97;100.00
21545;BME280;10933;50.754;11.508;2023-06-14T14:59:45;99561.59;;;22.84;100.00
21545;BME280;10933;50.754;11.508;2023-06-14T15:02:12;99567.75;;;22.81;100.00
21545;BME280;10933;50.754;11.508;2023-06-14T15:04:38;99559.66;;;23.35;100.00
21545;BME280;10933;50.754;11.508;2023-06-14T15:07:04;99556.06;;;23.64;100.00
21545;BME280;10933;50.754;11.508;2023-06-14T15:09:32;99566.63;;;23.33;100.00
21545;BME280;10933;50.754;11.508;2023-06-14T15:11:58;99557.78;;;23.27;100.00
21545;BME280;10933;50.754;11.508;2023-06-14T15:14:24;99562.56;;;23.60;100.00
21545;BME280;10933;50.754;11.508;2023-06-14T15:16:50;99568.03;;;24.59;100.00
21545;BME280;10933;50.754;11.508;2023-06-14T15:19:18;99557.13;;;23.51;100.00
21545;BME280;10933;50.754;11.508;2023-06-14T15:21:44;99562.56;;;22.88;100.00
21545;BME280;10933;50.754;11.508;2023-06-14T15:24:10;99558.59;;;22.69;100.00
21545;BME280;10933;50.754;11.508;2023-06-14T15:26:36;99557.59;;;22.73;100.00
21545;BME280;10933;50.754;11.508;2023-06-14T15:29:03;99556.41;;;22.92;100.00
21545;BME280;10933;50.754;11.508;2023-06-14T15:31:29;99554.19;;;22.38;100.00
21545;BME280;10933;50.754;11.508;2023-06-14T15:33:55;99559.78;;;21.95;100.00
21545;BME280;10933;50.754;11.508;2023-06-14T15:36:21;99568.22;;;21.72;100.00
21545;BME280;10933;50.754;11.508;2023-06-14T15:38:47;99558.88;;;21.48;100.00
21545;BME280;10933;50.754;11.508;2023-06-14T15:41:13;99566.25;;;21.90;100.00
21545;BME280;10933;50.754;11.508;2023-06-14T15:43:39;99568.38;;;21.67;100.00
21545;BME280;10933;50.754;11.508;2023-06-14T15:46:06;99570.31;;;21.58;100.00
21545;BME280;10933;50.754;11.508;2023-06-14T15:48:32;99563.38;;;21.69;100.00
21545;BME280;10933;50.754;11.508;2023-06-14T15:50:58;99566.44;;;21.77;100.00
21545;BME280;10933;50.754;11.508;2023-06-14T15:53:24;99562.03;;;21.93;100.00
21545;BME280;10933;50.754;11.508;2023-06-14T15:55:50;99567.53;;;22.01;100.00
21545;BME280;10933;50.754;11.508;2023-06-14T15:58:16;99559.50;;;21.53;100.00
21545;BME280;10933;50.754;11.508;2023-06-14T16:00:42;99569.03;;;21.64;100.00
21545;BME280;10933;50.754;11.508;2023-06-14T16:03:09;99560.75;;;21.90;100.00
21545;BME280;10933;50.754;11.508;2023-06-14T16:05:35;99573.72;;;21.64;100.00
21545;BME280;10933;50.754;11.508;2023-06-14T16:08:01;99571.13;;;21.59;100.00
21545;BME280;10933;50.754;11.508;2023-06-14T16:10:27;99572.53;;;21.22;100.00
21545;BME280;10933;50.754;11.508;2023-06-14T16:12:53;99563.81;;;21.20;100.00
21545;BME280;10933;50.754;11.508;2023-06-14T16:15:19;99569.09;;;20.99;100.00
21545;BME280;10933;50.754;11.508;2023-06-14T16:17:45;99572.47;;;20.87;100.00
21545;BME280;10933;50.754;11.508;2023-06-14T16:20:11;99572.19;;;20.97;100.00
21545;BME280;10933;50.754;11.508;2023-06-14T16:22:38;99578.94;;;21.08;100.00
21545;BME280;10933;50.754;11.508;2023-06-14T16:25:04;99572.72;;;21.25;100.00
21545;BME280;10933;50.754;11.508;2023-06-14T16:27:34;99579.66;;;21.23;100.00
21545;BME280;10933;50.754;11.508;2023-06-14T16:30:01;99584.81;;;21.33;100.00
21545;BME280;10933;50.754;11.508;2023-06-14T16:32:27;99585.16;;;21.40;100.00
21545;BME280;10933;50.754;11.508;2023-06-14T16:34:54;99601.88;;;21.12;100.00
21545;BME280;10933;50.754;11.508;2023-06-14T16:37:20;99590.81;;;21.26;100.00
21545;BME280;10933;50.754;11.508;2023-06-14T16:39:47;99604.16;;;21.19;100.00
21545;BME280;10933;50.754;11.508;2023-06-14T16:42:13;99606.72;;;21.15;100.00
21545;BME280;10933;50.754;11.508;2023-06-14T16:44:39;99603.19;;;21.15;100.00
21545;BME280;10933;50.754;11.508;2023-06-14T16:47:05;99607.50;;;21.07;100.00
21545;BME280;10933;50.754;11.508;2023-06-14T16:49:32;99607.63;;;20.85;100.00
21545;BME280;10933;50.754;11.508;2023-06-14T16:51:58;99621.97;;;20.91;100.00
21545;BME280;10933;50.754;11.508;2023-06-14T16:54:24;99626.47;;;20.78;100.00
21545;BME280;10933;50.754;11.508;2023-06-14T16:56:51;99628.13;;;20.56;100.00
21545;BME280;10933;50.754;11.508;2023-06-14T16:59:17;99640.22;;;20.55;100.00
21545;BME280;10933;50.754;11.508;2023-06-14T17:01:43;99644.41;;;20.53;100.00
21545;BME280;10933;50.754;11.508;2023-06-14T17:04:10;99647.28;;;20.25;100.00
21545;BME280;10933;50.754;11.508;2023-06-14T17:06:36;99662.84;;;20.16;100.00
21545;BME280;10933;50.754;11.508;2023-06-14T17:09:02;99673.22;;;20.06;100.00
21545;BME280;10933;50.754;11.508;2023-06-14T17:11:28;99685.56;;;19.81;100.00
21545;BME280;10933;50.754;11.508;2023-06-14T17:13:55;99687.75;;;19.70;100.00
21545;BME280;10933;50.754;11.508;2023-06-14T17:16:21;99685.13;;;19.65;100.00
21545;BME280;10933;50.754;11.508;2023-06-14T17:18:47;99697.28;;;19.73;100.00
21545;BME280;10933;50.754;11.508;2023-06-14T17:21:14;99689.56;;;19.75;100.00
21545;BME280;10933;50.754;11.508;2023-06-14T17:23:40;99699.88;;;19.78;100.00
21545;BME280;10933;50.754;11.508;2023-06-14T17:26:06;99702.53;;;19.69;100.00
21545;BME280;10933;50.754;11.508;2023-06-14T17:28:33;99714.72;;;19.63;100.00
21545;BME280;10933;50.754;11.508;2023-06-14T17:30:59;99720.38;;;19.53;100.00
21545;BME280;10933;50.754;11.508;2023-06-14T17:33:25;99717.28;;;19.59;100.00
21545;BME280;10933;50.754;11.508;2023-06-14T17:35:52;99728.59;;;19.53;100.00
21545;BME280;10933;50.754;11.508;2023-06-14T17:38:18;99720.19;;;19.35;100.00
21545;BME280;10933;50.754;11.508;2023-06-14T17:40:44;99727.00;;;19.24;100.00
21545;BME280;10933;50.754;11.508;2023-06-14T17:43:10;99722.72;;;19.18;100.00
21545;BME280;10933;50.754;11.508;2023-06-14T17:45:36;99734.38;;;19.10;100.00
21545;BME280;10933;50.754;11.508;2023-06-14T17:48:03;99735.56;;;19.04;100.00
21545;BME280;10933;50.754;11.508;2023-06-14T17:50:29;99748.34;;;18.95;100.00
21545;BME280;10933;50.754;11.508;2023-06-14T17:52:55;99741.25;;;18.94;100.00
21545;BME280;10933;50.754;11.508;2023-06-14T17:55:22;99752.38;;;18.84;100.00
21545;BME280;10933;50.754;11.508;2023-06-14T17:57:48;99749.13;;;18.81;100.00
21545;BME280;10933;50.754;11.508;2023-06-14T18:00:15;99752.97;;;18.80;100.00
21545;BME280;10933;50.754;11.508;2023-06-14T18:02:41;99761.75;;;18.77;100.00
21545;BME280;10933;50.754;11.508;2023-06-14T18:05:07;99760.22;;;18.71;100.00
21545;BME280;10933;50.754;11.508;2023-06-14T18:07:33;99767.31;;;18.72;100.00
21545;BME280;10933;50.754;11.508;2023-06-14T18:10:00;99771.38;;;18.75;100.00
21545;BME280;10933;50.754;11.508;2023-06-14T18:15:44;99781.69;;;18.78;100.00
21545;BME280;10933;50.754;11.508;2023-06-14T18:18:11;99785.22;;;18.78;100.00
21545;BME280;10933;50.754;11.508;2023-06-14T18:20:37;99792.25;;;18.85;100.00
21545;BME280;10933;50.754;11.508;2023-06-14T18:23:03;99793.22;;;18.75;100.00
21545;BME280;10933;50.754;11.508;2023-06-14T18:25:29;99795.06;;;18.79;100.00
21545;BME280;10933;50.754;11.508;2023-06-14T18:27:55;99808.31;;;18.72;100.00
21545;BME280;10933;50.754;11.508;2023-06-14T18:30:22;99816.88;;;18.66;100.00
21545;BME280;10933;50.754;11.508;2023-06-14T18:32:48;99831.19;;;18.58;100.00
21545;BME280;10933;50.754;11.508;2023-06-14T18:35:15;99846.25;;;18.55;100.00
21545;BME280;10933;50.754;11.508;2023-06-14T18:37:43;99854.59;;;18.45;100.00
21545;BME280;10933;50.754;11.508;2023-06-14T18:40:09;99860.13;;;18.40;100.00
21545;BME280;10933;50.754;11.508;2023-06-14T18:42:36;99857.78;;;18.33;100.00
21545;BME280;10933;50.754;11.508;2023-06-14T18:45:02;99866.56;;;18.30;100.00
21545;BME280;10933;50.754;11.508;2023-06-14T18:47:29;99872.28;;;18.29;100.00
21545;BME280;10933;50.754;11.508;2023-06-14T18:49:55;99883.47;;;18.32;100.00
21545;BME280;10933;50.754;11.508;2023-06-14T18:52:21;99872.28;;;18.29;100.00
21545;BME280;10933;50.754;11.508;2023-06-14T18:54:47;99893.69;;;18.21;100.00
21545;BME280;10933;50.754;11.508;2023-06-14T18:57:14;99907.19;;;18.13;100.00
21545;BME280;10933;50.754;11.508;2023-06-14T18:59:40;99921.72;;;18.08;100.00
21545;BME280;10933;50.754;11.508;2023-06-14T19:02:06;99931.25;;;18.11;100.00
21545;BME280;10933;50.754;11.508;2023-06-14T19:04:32;99947.31;;;18.12;100.00
21545;BME280;10933;50.754;11.508;2023-06-14T19:06:58;99971.56;;;17.95;100.00
21545;BME280;10933;50.754;11.508;2023-06-14T19:09:24;99996.50;;;17.83;100.00
21545;BME280;10933;50.754;11.508;2023-06-14T19:11:51;100035.59;;;17.74;100.00
21545;BME280;10933;50.754;11.508;2023-06-14T19:14:18;100070.59;;;17.61;100.00
21545;BME280;10933;50.754;11.508;2023-06-14T19:16:44;100106.75;;;17.43;100.00
21545;BME280;10933;50.754;11.508;2023-06-14T19:19:10;100116.56;;;17.39;100.00
21545;BME280;10933;50.754;11.508;2023-06-14T19:21:37;100146.09;;;17.27;100.00
21545;BME280;10933;50.754;11.508;2023-06-14T19:24:04;100183.22;;;17.18;100.00
21545;BME280;10933;50.754;11.508;2023-06-14T19:26:30;100218.16;;;17.05;100.00
21545;BME280;10933;50.754;11.508;2023-06-14T19:28:57;100247.63;;;16.98;100.00
21545;BME280;10933;50.754;11.508;2023-06-14T19:31:24;100299.97;;;16.90;100.00
21545;BME280;10933;50.754;11.508;2023-06-14T19:33:50;100340.00;;;16.74;100.00
21545;BME280;10933;50.754;11.508;2023-06-14T19:36:19;100374.56;;;16.64;100.00
21545;BME280;10933;50.754;11.508;2023-06-14T19:38:46;100405.09;;;16.61;100.00
21545;BME280;10933;50.754;11.508;2023-06-14T19:41:16;100433.97;;;16.52;100.00
21545;BME280;10933;50.754;11.508;2023-06-14T19:43:42;100457.88;;;16.44;100.00
21545;BME280;10933;50.754;11.508;2023-06-14T19:46:08;100481.56;;;16.44;100.00
21545;BME280;10933;50.754;11.508;2023-06-14T19:48:35;100501.97;;;16.36;100.00
21545;BME280;10933;50.754;11.508;2023-06-14T19:51:01;100523.94;;;16.19;100.00
21545;BME280;10933;50.754;11.508;2023-06-14T19:53:27;100559.00;;;16.11;100.00
21545;BME280;10933;50.754;11.508;2023-06-14T19:55:53;100586.41;;;15.99;100.00
21545;BME280;10933;50.754;11.508;2023-06-14T19:58:20;100617.88;;;15.85;100.00
21545;BME280;10933;50.754;11.508;2023-06-14T20:00:46;100634.75;;;15.87;100.00
21545;BME280;10933;50.754;11.508;2023-06-14T20:03:13;100635.19;;;15.74;100.00
21545;BME280;10933;50.754;11.508;2023-06-14T20:05:39;100646.59;;;15.71;100.00
21545;BME280;10933;50.754;11.508;2023-06-14T20:08:07;100625.94;;;15.48;100.00
21545;BME280;10933;50.754;11.508;2023-06-14T20:10:33;100573.53;;;15.25;100.00
21545;BME280;10933;50.754;11.508;2023-06-14T20:12:59;100517.34;;;15.04;100.00
21545;BME280;10933;50.754;11.508;2023-06-14T20:15:25;100436.13;;;14.81;100.00
21545;BME280;10933;50.754;11.508;2023-06-14T20:17:51;100259.50;;;14.70;100.00
21545;BME280;10933;50.754;11.508;2023-06-14T20:20:17;100159.50;;;14.57;100.00
21545;BME280;10933;50.754;11.508;2023-06-14T20:22:44;100038.41;;;14.56;100.00
21545;BME280;10933;50.754;11.508;2023-06-14T20:25:10;99896.69;;;14.49;100.00
21545;BME280;10933;50.754;11.508;2023-06-14T20:27:36;99751.44;;;14.36;100.00
21545;BME280;10933;50.754;11.508;2023-06-14T20:30:04;99568.81;;;14.21;100.00
21545;BME280;10933;50.754;11.508;2023-06-14T20:32:30;99376.47;;;14.19;100.00
21545;BME280;10933;50.754;11.508;2023-06-14T20:34:57;99208.50;;;14.28;100.00
21545;BME280;10933;50.754;11.508;2023-06-14T20:37:23;99099.94;;;14.33;100.00
21545;BME280;10933;50.754;11.508;2023-06-14T20:39:53;99048.88;;;14.35;100.00
21545;BME280;10933;50.754;11.508;2023-06-14T20:42:19;99017.09;;;14.17;100.00
21545;BME280;10933;50.754;11.508;2023-06-14T20:44:45;98962.31;;;14.14;100.00
21545;BME280;10933;50.754;11.508;2023-06-14T20:47:11;98920.31;;;14.12;100.00
21545;BME280;10933;50.754;11.508;2023-06-14T20:49:41;98902.88;;;13.94;100.00
21545;BME280;10933;50.754;11.508;2023-06-14T20:52:08;98890.91;;;14.00;100.00
21545;BME280;10933;50.754;11.508;2023-06-14T20:54:36;98944.94;;;13.92;100.00
21545;BME280;10933;50.754;11.508;2023-06-14T20:57:07;98973.47;;;13.84;100.00
21545;BME280;10933;50.754;11.508;2023-06-14T20:59:33;99027.75;;;13.79;100.00
21545;BME280;10933;50.754;11.508;2023-06-14T21:01:59;99038.72;;;13.64;100.00
21545;BME280;10933;50.754;11.508;2023-06-14T21:04:25;99066.63;;;13.64;100.00
21545;BME280;10933;50.754;11.508;2023-06-14T21:06:51;99071.91;;;13.45;100.00
21545;BME280;10933;50.754;11.508;2023-06-14T21:09:18;99090.38;;;13.38;100.00
21545;BME280;10933;50.754;11.508;2023-06-14T21:11:44;99105.09;;;13.27;100.00
21545;BME280;10933;50.754;11.508;2023-06-14T21:14:12;99113.72;;;13.34;100.00
21545;BME280;10933;50.754;11.508;2023-06-14T21:16:38;99121.63;;;13.15;100.00
21545;BME280;10933;50.754;11.508;2023-06-14T21:19:04;99142.25;;;13.06;100.00
21545;BME280;10933;50.754;11.508;2023-06-14T21:21:30;99172.88;;;12.91;100.00
21545;BME280;10933;50.754;11.508;2023-06-14T21:23:57;99199.97;;;12.81;100.00
21545;BME280;10933;50.754;11.508;2023-06-14T21:26:23;99242.78;;;12.74;100.00
21545;BME280;10933;50.754;11.508;2023-06-14T21:28:49;99289.84;;;12.68;100.00
21545;BME280;10933;50.754;11.508;2023-06-14T21:31:18;99305.56;;;12.66;100.00
21545;BME280;10933;50.754;11.508;2023-06-14T21:33:45;99314.75;;;12.75;100.00
21545;BME280;10933;50.754;11.508;2023-06-14T21:36:11;99318.56;;;12.74;100.00
21545;BME280;10933;50.754;11.508;2023-06-14T21:38:37;99305.28;;;12.73;100.00
21545;BME280;10933;50.754;11.508;2023-06-14T21:41:03;99312.03;;;12.55;100.00
21545;BME280;10933;50.754;11.508;2023-06-14T21:43:30;99329.09;;;12.60;100.00
21545;BME280;10933;50.754;11.508;2023-06-14T21:45:56;99334.78;;;12.64;100.00
21545;BME280;10933;50.754;11.508;2023-06-14T21:48:22;99329.34;;;12.49;100.00
21545;BME280;10933;50.754;11.508;2023-06-14T21:50:48;99349.88;;;12.29;100.00
21545;BME280;10933;50.754;11.508;2023-06-14T21:53:14;99366.41;;;12.33;100.00
21545;BME280;10933;50.754;11.508;2023-06-14T21:55:41;99405.03;;;12.23;100.00
21545;BME280;10933;50.754;11.508;2023-06-14T21:58:07;99416.63;;;12.19;100.00
21545;BME280;10933;50.754;11.508;2023-06-14T22:00:33;99422.53;;;12.05;100.00
21545;BME280;10933;50.754;11.508;2023-06-14T22:02:59;99447.13;;;12.04;100.00
21545;BME280;10933;50.754;11.508;2023-06-14T22:05:25;99468.72;;;11.99;100.00
21545;BME280;10933;50.754;11.508;2023-06-14T22:07:51;99475.28;;;12.08;100.00
21545;BME280;10933;50.754;11.508;2023-06-14T22:10:18;99479.81;;;11.97;100.00
21545;BME280;10933;50.754;11.508;2023-06-14T22:12:46;99500.53;;;11.82;100.00
21545;BME280;10933;50.754;11.508;2023-06-14T22:15:15;99510.91;;;11.68;100.00
21545;BME280;10933;50.754;11.508;2023-06-14T22:17:42;99519.22;;;11.56;100.00
21545;BME280;10933;50.754;11.508;2023-06-14T22:20:10;99530.03;;;11.56;100.00
21545;BME280;10933;50.754;11.508;2023-06-14T22:22:39;99535.09;;;11.79;100.00
21545;BME280;10933;50.754;11.508;2023-06-14T22:25:06;99540.81;;;11.83;100.00
21545;BME280;10933;50.754;11.508;2023-06-14T22:27:33;99546.81;;;11.58;100.00
21545;BME280;10933;50.754;11.508;2023-06-14T22:30:03;99551.66;;;11.56;100.00
21545;BME280;10933;50.754;11.508;2023-06-14T22:32:30;99556.41;;;11.44;100.00
21545;BME280;10933;50.754;11.508;2023-06-14T22:35:00;99577.94;;;11.39;100.00
21545;BME280;10933;50.754;11.508;2023-06-14T22:37:29;99589.97;;;11.53;100.00
21545;BME280;10933;50.754;11.508;2023-06-14T22:40:07;99592.78;;;11.68;100.00
21545;BME280;10933;50.754;11.508;2023-06-14T22:42:44;99597.31;;;11.58;100.00
21545;BME280;10933;50.754;11.508;2023-06-14T22:45:13;99589.25;;;11.36;100.00
21545;BME280;10933;50.754;11.508;2023-06-14T22:47:42;99596.81;;;11.34;100.00
21545;BME280;10933;50.754;11.508;2023-06-14T22:50:10;99599.97;;;11.26;100.00
21545;BME280;10933;50.754;11.508;2023-06-14T22:52:37;99600.97;;;11.19;100.00
21545;BME280;10933;50.754;11.508;2023-06-14T22:55:06;99625.16;;;11.09;100.00
21545;BME280;10933;50.754;11.508;2023-06-14T22:57:33;99643.94;;;10.99;100.00
21545;BME280;10933;50.754;11.508;2023-06-14T23:00:00;99651.38;;;10.92;100.00
21545;BME280;10933;50.754;11.508;2023-06-14T23:02:30;99647.13;;;10.96;100.00
21545;BME280;10933;50.754;11.508;2023-06-14T23:04:56;99642.81;;;10.95;100.00
21545;BME280;10933;50.754;11.508;2023-06-14T23:07:23;99643.66;;;10.79;100.00
21545;BME280;10933;50.754;11.508;2023-06-14T23:09:52;99671.72;;;10.78;100.00
21545;BME280;10933;50.754;11.508;2023-06-14T23:12:22;99677.56;;;10.70;100.00
21545;BME280;10933;50.754;11.508;2023-06-14T23:14:50;99690.06;;;10.59;100.00
21545;BME280;10933;50.754;11.508;2023-06-14T23:17:16;99687.69;;;10.63;100.00
21545;BME280;10933;50.754;11.508;2023-06-14T23:19:43;99684.94;;;10.57;100.00
21545;BME280;10933;50.754;11.508;2023-06-14T23:22:09;99687.53;;;10.52;100.00
21545;BME280;10933;50.754;11.508;2023-06-14T23:24:39;99699.81;;;10.43;100.00
21545;BME280;10933;50.754;11.508;2023-06-14T23:27:06;99700.28;;;10.40;100.00
21545;BME280;10933;50.754;11.508;2023-06-14T23:29:33;99697.84;;;10.39;100.00
21545;BME280;10933;50.754;11.508;2023-06-14T23:32:06;99700.16;;;10.30;100.00
21545;BME280;10933;50.754;11.508;2023-06-14T23:34:33;99697.69;;;10.45;100.00
21545;BME280;10933;50.754;11.508;2023-06-14T23:37:00;99697.34;;;10.58;100.00
21545;BME280;10933;50.754;11.508;2023-06-14T23:39:29;99703.38;;;10.66;100.00
21545;BME280;10933;50.754;11.508;2023-06-14T23:41:55;99703.16;;;10.50;100.00
21545;BME280;10933;50.754;11.508;2023-06-14T23:44:23;99698.84;;;10.32;100.00
21545;BME280;10933;50.754;11.508;2023-06-14T23:46:51;99713.03;;;10.28;100.00
21545;BME280;10933;50.754;11.508;2023-06-14T23:49:23;99708.53;;;10.17;100.00
21545;BME280;10933;50.754;11.508;2023-06-14T23:51:49;99710.06;;;10.13;100.00
21545;BME280;10933;50.754;11.508;2023-06-14T23:54:17;99720.53;;;10.09;100.00
21545;BME280;10933;50.754;11.508;2023-06-14T23:56:44;99707.31;;;10.08;100.00
21545;BME280;10933;50.754;11.508;2023-06-14T23:59:19;99720.22;;;10.06;100.00
